Time;durP1;ratioP1;P1;durP2;ratioP2;P2;SDS_P1;SDS_P2;PMS_P1;PMS_P2;Temp;Humidity;BMP_temperature;BMP_pressure;BME280_temperature;BME280_humidity;BME280_pressure;Samples;Min_cycle;Max_cycle;Signal;HPM_P1;HPM_P2
2021/12/14 00:01:24;;;;;;;;;;;10.10;99.90;;;;;;7346269;19;110629;-78
2021/12/14 00:03:53;;;;;;;;;;;10.10;99.90;;;;;;7342959;19;112722;-79
2021/12/14 00:06:20;;;;;;;;;;;10.10;99.90;;;;;;7344753;19;111383;-78
2021/12/14 00:08:53;;;;;;;;;;;10.10;99.90;;;;;;7347811;19;110607;-77
2021/12/14 00:11:49;;;;;;;;;;;10.00;99.90;;;;;;7348920;19;111708;-79
2021/12/14 00:17:15;;;;;;;;;;;10.00;99.90;;;;;;7342487;19;111598;-78
2021/12/14 00:19:42;;;;;;;;;;;10.00;99.90;;;;;;7343711;19;109475;-79
2021/12/14 00:22:27;;;;;;;;;;;10.00;99.90;;;;;;7346131;19;110668;-79
2021/12/14 00:24:54;;;;;;;;;;;10.00;99.90;;;;;;7342074;19;111716;-77
2021/12/14 00:27:23;;;;;;;;;;;10.00;99.90;;;;;;7346242;19;109780;-79
2021/12/14 00:29:53;;;;;;;;;;;10.00;99.90;;;;;;7343005;19;110668;-78
2021/12/14 00:32:21;;;;;;;;;;;10.00;99.90;;;;;;7344418;19;111803;-78
2021/12/14 00:34:48;;;;;;;;;;;10.00;99.90;;;;;;7347840;19;109537;-78
2021/12/14 00:37:27;;;;;;;;;;;9.90;99.90;;;;;;7344346;19;111974;-78
2021/12/14 00:39:54;;;;;;;;;;;9.90;99.90;;;;;;7344304;19;109436;-79
2021/12/14 00:42:21;;;;;;;;;;;10.00;99.90;;;;;;7341939;19;110566;-78
2021/12/14 00:44:48;;;;;;;;;;;9.90;99.90;;;;;;7345423;19;111677;-78
2021/12/14 00:47:16;;;;;;;;;;;9.90;99.90;;;;;;7338911;19;110457;-78
2021/12/14 00:49:43;;;;;;;;;;;9.90;99.90;;;;;;7346168;19;111268;-79
2021/12/14 00:52:10;;;;;;;;;;;9.90;99.90;;;;;;7341917;19;111230;-78
2021/12/14 00:54:37;;;;;;;;;;;9.90;99.90;;;;;;7345479;19;111158;-79
2021/12/14 00:57:05;;;;;;;;;;;9.90;99.90;;;;;;7343866;19;110639;-78
2021/12/14 00:59:32;;;;;;;;;;;9.90;99.90;;;;;;7344119;19;109521;-79
2021/12/14 01:02:02;;;;;;;;;;;9.90;99.90;;;;;;7345309;19;110510;-79
2021/12/14 01:04:31;;;;;;;;;;;9.90;99.90;;;;;;7340809;19;112923;-79
2021/12/14 01:06:59;;;;;;;;;;;9.90;99.90;;;;;;7345821;19;110255;-78
2021/12/14 01:09:29;;;;;;;;;;;9.90;99.90;;;;;;7344368;19;110937;-79
2021/12/14 01:12:01;;;;;;;;;;;9.80;99.90;;;;;;7347205;19;111485;-78
2021/12/14 01:14:39;;;;;;;;;;;9.80;99.90;;;;;;7343921;19;109979;-78
2021/12/14 01:17:13;;;;;;;;;;;9.80;99.90;;;;;;7344791;19;111051;-78
2021/12/14 01:19:42;;;;;;;;;;;9.80;99.90;;;;;;7351757;19;111686;-78
2021/12/14 01:22:18;;;;;;;;;;;9.90;99.90;;;;;;7343690;19;110968;-78
2021/12/14 01:25:01;;;;;;;;;;;9.80;99.90;;;;;;7345712;19;111957;-78
2021/12/14 01:27:35;;;;;;;;;;;9.80;99.90;;;;;;7344537;19;109306;-78
2021/12/14 01:30:15;;;;;;;;;;;9.80;99.90;;;;;;7342961;19;110726;-78
2021/12/14 01:32:45;;;;;;;;;;;9.80;99.90;;;;;;7346402;19;111658;-78
2021/12/14 01:35:14;;;;;;;;;;;9.80;99.90;;;;;;7343656;19;109284;-78
2021/12/14 01:37:46;;;;;;;;;;;9.80;99.90;;;;;;7346351;19;110716;-78
2021/12/14 01:40:19;;;;;;;;;;;9.80;99.90;;;;;;7343772;19;113327;-78
2021/12/14 01:42:46;;;;;;;;;;;9.80;99.90;;;;;;7351338;19;109621;-79
2021/12/14 01:45:20;;;;;;;;;;;9.80;99.90;;;;;;7343086;19;114991;-78
2021/12/14 01:47:52;;;;;;;;;;;9.80;99.90;;;;;;7343908;19;109263;-78
2021/12/14 01:50:26;;;;;;;;;;;9.90;99.90;;;;;;7346947;19;111217;-78
2021/12/14 01:52:53;;;;;;;;;;;9.90;99.90;;;;;;7342282;19;112402;-78
2021/12/14 01:55:22;;;;;;;;;;;9.80;99.90;;;;;;7345690;19;109491;-78
2021/12/14 01:57:49;;;;;;;;;;;9.80;99.90;;;;;;7341345;19;111080;-79
2021/12/14 02:00:19;;;;;;;;;;;9.80;99.90;;;;;;7344202;19;112059;-79
2021/12/14 02:02:46;;;;;;;;;;;9.80;99.90;;;;;;7348279;19;109359;-78
2021/12/14 02:05:32;;;;;;;;;;;9.80;99.90;;;;;;7342404;19;111787;-78
2021/12/14 02:08:00;;;;;;;;;;;9.90;99.90;;;;;;7343723;19;109426;-78
2021/12/14 02:10:30;;;;;;;;;;;9.80;99.90;;;;;;7349110;19;110987;-79
2021/12/14 02:12:58;;;;;;;;;;;9.80;99.90;;;;;;7352940;19;111756;-79
2021/12/14 02:15:30;;;;;;;;;;;9.80;99.90;;;;;;7347003;19;109677;-78
2021/12/14 02:17:58;;;;;;;;;;;9.80;99.90;;;;;;7350029;19;111178;-78
2021/12/14 02:20:30;;;;;;;;;;;9.80;99.90;;;;;;7350183;19;112075;-79
2021/12/14 02:22:58;;;;;;;;;;;9.80;99.90;;;;;;7347506;19;109819;-78
2021/12/14 02:25:25;;;;;;;;;;;9.80;99.90;;;;;;7358214;19;110735;-78
2021/12/14 02:27:53;;;;;;;;;;;9.80;99.90;;;;;;7347120;19;109310;-78
2021/12/14 02:30:21;;;;;;;;;;;9.80;99.90;;;;;;7352468;19;111077;-79
2021/12/14 02:32:49;;;;;;;;;;;9.80;99.90;;;;;;7347067;19;112047;-78
2021/12/14 02:35:18;;;;;;;;;;;9.80;99.90;;;;;;7351674;19;113490;-79
2021/12/14 02:37:47;;;;;;;;;;;9.70;99.90;;;;;;7349035;19;110947;-79
2021/12/14 02:40:20;;;;;;;;;;;9.70;99.90;;;;;;7348471;19;111659;-78
2021/12/14 02:42:48;;;;;;;;;;;9.70;99.90;;;;;;7351736;19;109339;-78
2021/12/14 02:45:16;;;;;;;;;;;9.70;99.90;;;;;;7347628;19;110709;-78
2021/12/14 02:47:43;;;;;;;;;;;9.70;99.90;;;;;;7354863;19;111768;-78
2021/12/14 02:50:10;;;;;;;;;;;9.70;99.90;;;;;;7347604;19;111540;-78
2021/12/14 02:52:38;;;;;;;;;;;9.70;99.90;;;;;;7350680;19;111966;-78
2021/12/14 02:55:10;;;;;;;;;;;9.70;99.90;;;;;;7346109;19;110477;-79
2021/12/14 02:57:39;;;;;;;;;;;9.70;99.90;;;;;;7349633;19;111097;-79
2021/12/14 03:00:11;;;;;;;;;;;9.70;99.90;;;;;;7351183;19;111605;-77
2021/12/14 03:02:38;;;;;;;;;;;9.70;99.90;;;;;;7348125;19;110401;-78
2021/12/14 03:05:17;;;;;;;;;;;9.70;99.90;;;;;;7350725;19;114469;-78
2021/12/14 03:08:03;;;;;;;;;;;9.70;99.90;;;;;;7345534;19;111763;-79
2021/12/14 03:10:35;;;;;;;;;;;9.60;99.90;;;;;;7355133;19;109432;-79
2021/12/14 03:13:07;;;;;;;;;;;9.60;99.90;;;;;;7348373;19;112048;-78
2021/12/14 03:15:45;;;;;;;;;;;9.60;99.90;;;;;;7348795;19;109363;-78
2021/12/14 03:18:14;;;;;;;;;;;9.60;99.90;;;;;;7348636;19;110457;-78
2021/12/14 03:20:46;;;;;;;;;;;9.60;99.90;;;;;;7344762;19;111688;-78
2021/12/14 03:23:16;;;;;;;;;;;9.60;99.90;;;;;;7350831;19;109485;-79
2021/12/14 03:25:45;;;;;;;;;;;9.60;99.90;;;;;;7347883;19;111070;-78
2021/12/14 03:28:13;;;;;;;;;;;9.60;99.90;;;;;;7349030;19;112390;-79
2021/12/14 03:30:50;;;;;;;;;;;9.60;99.90;;;;;;7346746;19;110544;-78
2021/12/14 03:33:21;;;;;;;;;;;9.60;99.90;;;;;;7351883;19;111013;-79
2021/12/14 03:35:50;;;;;;;;;;;9.60;99.90;;;;;;7351380;19;109315;-78
2021/12/14 03:38:17;;;;;;;;;;;9.60;99.90;;;;;;7346648;19;110952;-78
2021/12/14 03:40:44;;;;;;;;;;;9.60;99.90;;;;;;7349098;19;111803;-78
2021/12/14 03:43:12;;;;;;;;;;;9.60;99.90;;;;;;7346146;19;109286;-78
2021/12/14 03:45:39;;;;;;;;;;;9.60;99.90;;;;;;7348250;19;111126;-78
2021/12/14 03:48:06;;;;;;;;;;;9.60;99.90;;;;;;7345772;19;111670;-79
2021/12/14 03:50:40;;;;;;;;;;;9.60;99.90;;;;;;7348531;19;110032;-78
2021/12/14 03:53:07;;;;;;;;;;;9.60;99.90;;;;;;7348428;19;110752;-78
2021/12/14 03:55:35;;;;;;;;;;;9.60;99.90;;;;;;7352038;19;112045;-78
2021/12/14 03:58:06;;;;;;;;;;;9.60;99.90;;;;;;7347349;19;110725;-78
2021/12/14 04:00:38;;;;;;;;;;;9.60;99.90;;;;;;7344843;19;111752;-77
2021/12/14 04:03:08;;;;;;;;;;;9.60;99.90;;;;;;7349614;19;109610;-79
2021/12/14 04:05:36;;;;;;;;;;;9.60;99.90;;;;;;7344459;19;112015;-78
2021/12/14 04:08:03;;;;;;;;;;;9.60;99.90;;;;;;7346797;19;112261;-78
2021/12/14 04:10:32;;;;;;;;;;;9.60;99.90;;;;;;7345012;19;109318;-79
2021/12/14 04:12:59;;;;;;;;;;;9.60;99.90;;;;;;7345056;19;110917;-78
2021/12/14 04:15:26;;;;;;;;;;;9.60;99.90;;;;;;7352255;19;113722;-78
2021/12/14 04:17:53;;;;;;;;;;;9.50;99.90;;;;;;7344396;19;110943;-77
2021/12/14 04:20:32;;;;;;;;;;;9.60;99.90;;;;;;7344828;19;112445;-79
2021/12/14 04:23:01;;;;;;;;;;;9.60;99.90;;;;;;7345718;19;109914;-78
2021/12/14 04:25:30;;;;;;;;;;;9.60;99.90;;;;;;7347320;19;110682;-78
2021/12/14 04:27:58;;;;;;;;;;;9.60;99.90;;;;;;7342935;19;111864;-79
2021/12/14 04:30:25;;;;;;;;;;;9.60;99.90;;;;;;7345271;19;111837;-79
2021/12/14 04:32:54;;;;;;;;;;;9.60;99.90;;;;;;7344335;19;110673;-78
2021/12/14 04:35:21;;;;;;;;;;;9.60;99.90;;;;;;7344609;19;111815;-78
2021/12/14 04:37:49;;;;;;;;;;;9.60;99.90;;;;;;7352468;19;109538;-78
2021/12/14 04:51:52;;;;;;;;;;;9.60;99.90;;;;;;7344045;19;111885;-78
2021/12/14 04:54:19;;;;;;;;;;;9.50;99.90;;;;;;7348651;19;110947;-79
2021/12/14 04:56:46;;;;;;;;;;;9.60;99.90;;;;;;7344009;19;112116;-78
2021/12/14 04:59:15;;;;;;;;;;;9.60;99.90;;;;;;7346811;19;109374;-78
2021/12/14 05:01:43;;;;;;;;;;;9.60;99.90;;;;;;7349355;19;111368;-79
2021/12/14 05:04:12;;;;;;;;;;;9.60;99.90;;;;;;7347261;19;109931;-79
2021/12/14 05:06:49;;;;;;;;;;;9.50;99.90;;;;;;7343439;19;110941;-79
2021/12/14 05:09:36;;;;;;;;;;;9.60;99.90;;;;;;7345421;19;111874;-79
2021/12/14 05:12:08;;;;;;;;;;;9.60;99.90;;;;;;7346861;19;109297;-78
2021/12/14 05:14:35;;;;;;;;;;;9.60;99.90;;;;;;7345027;19;110636;-79
2021/12/14 05:17:08;;;;;;;;;;;9.50;99.90;;;;;;7346886;19;111951;-79
2021/12/14 05:19:36;;;;;;;;;;;9.50;99.90;;;;;;7343324;19;110557;-78
2021/12/14 05:22:11;;;;;;;;;;;9.50;99.90;;;;;;7348433;19;110733;-79
2021/12/14 05:24:39;;;;;;;;;;;9.50;99.90;;;;;;7348724;19;111539;-77
2021/12/14 05:27:07;;;;;;;;;;;9.50;99.90;;;;;;7342281;19;110588;-79
2021/12/14 05:29:35;;;;;;;;;;;9.50;99.90;;;;;;7346692;19;111661;-78
2021/12/14 05:32:03;;;;;;;;;;;9.50;99.90;;;;;;7342800;19;109905;-79
2021/12/14 05:34:34;;;;;;;;;;;9.50;99.90;;;;;;7346556;19;110690;-78
2021/12/14 05:37:01;;;;;;;;;;;9.50;99.90;;;;;;7340476;19;112020;-79
2021/12/14 05:39:46;;;;;;;;;;;9.50;99.90;;;;;;7344901;19;113674;-79
2021/12/14 05:45:02;;;;;;;;;;;9.50;99.90;;;;;;7341145;19;111653;-78
2021/12/14 05:47:29;;;;;;;;;;;9.50;99.90;;;;;;7351991;19;109490;-78
2021/12/14 05:49:56;;;;;;;;;;;9.50;99.90;;;;;;7342275;19;112343;-79
2021/12/14 05:52:25;;;;;;;;;;;9.50;99.90;;;;;;7347047;19;109503;-79
2021/12/14 05:54:53;;;;;;;;;;;9.50;99.90;;;;;;7343296;19;110556;-79
2021/12/14 05:57:21;;;;;;;;;;;9.50;99.90;;;;;;7345763;19;112568;-79
2021/12/14 05:59:48;;;;;;;;;;;9.50;99.90;;;;;;7341601;19;110597;-78
2021/12/14 06:02:15;;;;;;;;;;;9.50;99.90;;;;;;7345016;19;111138;-79
2021/12/14 06:04:50;;;;;;;;;;;9.50;99.90;;;;;;7345103;19;111743;-78
2021/12/14 06:07:17;;;;;;;;;;;9.50;99.90;;;;;;7343113;19;109337;-79
2021/12/14 06:09:46;;;;;;;;;;;9.50;99.90;;;;;;7349685;19;110912;-78
2021/12/14 06:12:15;;;;;;;;;;;9.40;99.90;;;;;;7341989;19;109745;-78
2021/12/14 06:14:50;;;;;;;;;;;9.50;99.90;;;;;;7344569;19;111640;-78
2021/12/14 06:17:22;;;;;;;;;;;9.50;99.90;;;;;;7342072;19;111717;-79
2021/12/14 06:19:51;;;;;;;;;;;9.50;99.90;;;;;;7341636;19;109411;-79
2021/12/14 06:22:19;;;;;;;;;;;9.50;99.90;;;;;;7342536;19;110667;-79
2021/12/14 06:24:48;;;;;;;;;;;9.40;99.90;;;;;;7340811;19;112010;-78
2021/12/14 06:27:16;;;;;;;;;;;9.50;99.90;;;;;;7344414;19;109509;-79
2021/12/14 06:29:44;;;;;;;;;;;9.50;99.90;;;;;;7345056;19;112052;-78
2021/12/14 06:32:17;;;;;;;;;;;9.40;99.90;;;;;;7341887;19;110318;-79
2021/12/14 06:34:48;;;;;;;;;;;9.40;99.90;;;;;;7340552;19;110860;-78
2021/12/14 06:37:42;;;;;;;;;;;9.40;99.90;;;;;;7342922;19;111640;-78
2021/12/14 06:40:09;;;;;;;;;;;9.40;99.90;;;;;;7342935;19;110701;-78
2021/12/14 06:42:37;;;;;;;;;;;9.40;99.90;;;;;;7341268;19;110722;-78
2021/12/14 06:45:19;;;;;;;;;;;9.40;99.90;;;;;;7343502;19;112293;-79
2021/12/14 06:47:48;;;;;;;;;;;9.40;99.90;;;;;;7341726;19;110124;-78
2021/12/14 06:50:17;;;;;;;;;;;9.40;99.90;;;;;;7342472;19;110790;-79
2021/12/14 06:52:53;;;;;;;;;;;9.40;99.90;;;;;;7338042;19;114099;-79
2021/12/14 06:55:21;;;;;;;;;;;9.40;99.90;;;;;;7338067;19;110686;-78
2021/12/14 06:57:48;;;;;;;;;;;9.40;99.90;;;;;;7346972;19;111987;-79
2021/12/14 07:00:16;;;;;;;;;;;9.40;99.90;;;;;;7345599;19;111309;-77
2021/12/14 07:02:48;;;;;;;;;;;9.40;99.90;;;;;;7337952;19;113087;-78
2021/12/14 07:05:20;;;;;;;;;;;9.40;99.90;;;;;;7346783;19;111685;-78
2021/12/14 07:07:47;;;;;;;;;;;9.40;99.90;;;;;;7351518;19;109937;-78
2021/12/14 07:10:14;;;;;;;;;;;9.40;99.90;;;;;;7348364;19;110576;-78
2021/12/14 07:12:42;;;;;;;;;;;9.30;99.90;;;;;;7349903;19;111944;-79
2021/12/14 07:15:26;;;;;;;;;;;9.30;99.90;;;;;;7352939;19;109591;-78
2021/12/14 07:18:01;;;;;;;;;;;9.40;99.90;;;;;;7347095;19;111768;-79
2021/12/14 07:20:30;;;;;;;;;;;9.30;99.90;;;;;;7349544;19;109384;-78
2021/12/14 07:23:01;;;;;;;;;;;9.40;99.90;;;;;;7347042;19;111004;-77
2021/12/14 07:25:33;;;;;;;;;;;9.40;99.90;;;;;;7350635;19;112437;-78
2021/12/14 07:28:04;;;;;;;;;;;9.40;99.90;;;;;;7350616;19;109423;-78
2021/12/14 07:30:34;;;;;;;;;;;9.40;99.90;;;;;;7350792;19;110944;-80
2021/12/14 07:33:01;;;;;;;;;;;9.40;99.90;;;;;;7346865;19;112180;-77
2021/12/14 07:35:33;;;;;;;;;;;9.40;99.90;;;;;;7336340;19;110285;-77
2021/12/14 07:38:03;;;;;;;;;;;9.40;99.90;;;;;;7356214;19;110803;-78
2021/12/14 07:40:39;;;;;;;;;;;9.40;99.90;;;;;;7347455;19;109724;-80
2021/12/14 07:43:09;;;;;;;;;;;9.40;99.90;;;;;;7349547;19;111224;-78
2021/12/14 07:45:36;;;;;;;;;;;9.40;99.90;;;;;;7347781;19;111784;-78
2021/12/14 07:48:03;;;;;;;;;;;9.30;99.90;;;;;;7350590;19;109848;-78
2021/12/14 07:50:41;;;;;;;;;;;9.40;99.90;;;;;;7345726;19;110701;-79
2021/12/14 07:53:09;;;;;;;;;;;9.40;99.90;;;;;;7349077;19;111865;-78
2021/12/14 07:55:38;;;;;;;;;;;9.40;99.90;;;;;;7346368;19;109664;-78
2021/12/14 07:58:05;;;;;;;;;;;9.40;99.90;;;;;;7339217;19;111001;-78
2021/12/14 08:00:35;;;;;;;;;;;9.40;99.90;;;;;;7335968;19;112158;-78
2021/12/14 08:03:03;;;;;;;;;;;9.40;99.90;;;;;;7334462;19;111524;-78
2021/12/14 08:05:33;;;;;;;;;;;9.40;99.90;;;;;;7340180;19;112057;-77
2021/12/14 08:08:09;;;;;;;;;;;9.40;99.90;;;;;;7334409;19;110069;-78
2021/12/14 08:10:39;;;;;;;;;;;9.40;99.90;;;;;;7343503;19;110854;-78
2021/12/14 08:13:08;;;;;;;;;;;9.40;99.90;;;;;;7340977;19;113230;-80
2021/12/14 08:15:40;;;;;;;;;;;9.40;99.90;;;;;;7343050;19;109540;-77
2021/12/14 08:18:15;;;;;;;;;;;9.40;99.90;;;;;;7345515;19;110594;-80
2021/12/14 08:20:48;;;;;;;;;;;9.40;99.90;;;;;;7347890;19;111737;-78
2021/12/14 08:23:16;;;;;;;;;;;9.50;99.90;;;;;;7347717;19;109258;-79
2021/12/14 08:25:43;;;;;;;;;;;9.40;99.90;;;;;;7347315;19;111656;-78
2021/12/14 08:28:10;;;;;;;;;;;9.50;99.90;;;;;;7342477;19;110322;-78
2021/12/14 08:30:39;;;;;;;;;;;9.50;99.90;;;;;;7343249;19;110927;-79
2021/12/14 08:33:16;;;;;;;;;;;9.50;99.90;;;;;;7344291;19;111817;-79
2021/12/14 08:35:43;;;;;;;;;;;9.50;99.90;;;;;;7344581;19;109250;-80
2021/12/14 08:38:13;;;;;;;;;;;9.50;99.90;;;;;;7344926;19;110732;-80
2021/12/14 08:40:43;;;;;;;;;;;9.50;99.90;;;;;;7342621;19;111579;-78
2021/12/14 08:43:13;;;;;;;;;;;9.50;99.90;;;;;;7348547;19;111509;-78
2021/12/14 08:45:55;;;;;;;;;;;9.50;99.90;;;;;;7341526;19;112146;-79
2021/12/14 08:48:31;;;;;;;;;;;9.50;99.90;;;;;;7348238;19;110391;-78
2021/12/14 08:51:04;;;;;;;;;;;9.60;99.90;;;;;;7345220;19;110860;-79
2021/12/14 08:53:33;;;;;;;;;;;9.60;99.90;;;;;;7341476;19;112155;-78
2021/12/14 08:56:02;;;;;;;;;;;9.60;99.90;;;;;;7343455;19;110156;-79
2021/12/14 08:58:29;;;;;;;;;;;9.60;99.90;;;;;;7343852;19;111166;-79
2021/12/14 09:00:59;;;;;;;;;;;9.60;99.90;;;;;;7341987;19;111641;-78
2021/12/14 09:03:32;;;;;;;;;;;9.60;99.90;;;;;;7346244;19;109381;-78
2021/12/14 09:06:01;;;;;;;;;;;9.60;99.90;;;;;;7352059;19;111303;-78
2021/12/14 09:08:28;;;;;;;;;;;9.70;99.90;;;;;;7341936;19;109430;-78
2021/12/14 09:10:56;;;;;;;;;;;9.70;99.90;;;;;;7335151;19;111162;-78
2021/12/14 09:13:24;;;;;;;;;;;9.70;99.90;;;;;;7342927;19;112064;-77
2021/12/14 09:15:58;;;;;;;;;;;9.80;99.90;;;;;;7344396;19;110343;-78
2021/12/14 09:18:26;;;;;;;;;;;9.80;99.90;;;;;;7338052;19;110470;-78
2021/12/14 09:20:56;;;;;;;;;;;9.80;99.90;;;;;;7344755;19;112580;-79
2021/12/14 09:23:25;;;;;;;;;;;9.80;99.90;;;;;;7343425;19;110179;-79
2021/12/14 09:25:52;;;;;;;;;;;9.80;99.90;;;;;;7343643;19;111011;-79
2021/12/14 09:28:19;;;;;;;;;;;9.80;99.90;;;;;;7347699;19;112263;-79
2021/12/14 09:30:55;;;;;;;;;;;9.90;99.90;;;;;;7333487;19;110830;-79
2021/12/14 09:33:24;;;;;;;;;;;9.90;99.90;;;;;;7346319;19;111635;-78
2021/12/14 09:35:53;;;;;;;;;;;9.90;99.90;;;;;;7341212;19;113655;-77
2021/12/14 09:38:20;;;;;;;;;;;10.00;99.90;;;;;;7337025;19;110715;-78
2021/12/14 09:40:50;;;;;;;;;;;10.00;99.90;;;;;;7338458;19;111986;-77
2021/12/14 09:43:18;;;;;;;;;;;10.00;99.90;;;;;;7334315;19;110330;-77
2021/12/14 09:45:46;;;;;;;;;;;10.00;99.90;;;;;;7336439;19;110765;-79
2021/12/14 09:48:19;;;;;;;;;;;10.10;99.90;;;;;;7341136;19;111664;-78
2021/12/14 09:50:47;;;;;;;;;;;10.10;99.90;;;;;;7351504;19;109424;-78
2021/12/14 09:53:18;;;;;;;;;;;10.10;99.90;;;;;;7341860;19;111903;-78
2021/12/14 09:55:47;;;;;;;;;;;10.10;99.90;;;;;;7162486;19;112752;-78
2021/12/14 09:58:16;;;;;;;;;;;10.10;99.90;;;;;;7338263;19;110653;-77
2021/12/14 10:00:47;;;;;;;;;;;10.10;99.90;;;;;;7337712;19;111770;-78
2021/12/14 10:03:15;;;;;;;;;;;10.10;99.90;;;;;;7331898;19;109880;-79
2021/12/14 10:05:47;;;;;;;;;;;10.10;99.90;;;;;;7344754;19;111167;-77
2021/12/14 10:08:18;;;;;;;;;;;10.10;99.90;;;;;;7330864;19;112412;-78
2021/12/14 10:10:59;;;;;;;;;;;10.10;99.90;;;;;;7345063;19;109994;-78
2021/12/14 10:13:27;;;;;;;;;;;10.10;99.90;;;;;;7347483;19;111797;-77
2021/12/14 10:15:55;;;;;;;;;;;10.20;99.90;;;;;;7343180;19;112290;-77
2021/12/14 10:18:42;;;;;;;;;;;10.10;99.90;;;;;;7344554;19;111327;-77
2021/12/14 10:21:15;;;;;;;;;;;10.10;99.90;;;;;;7338340;19;112052;-77
2021/12/14 10:23:43;;;;;;;;;;;10.20;99.90;;;;;;7344822;19;109636;-77
2021/12/14 10:26:12;;;;;;;;;;;10.20;99.90;;;;;;7341850;19;113177;-77
2021/12/14 10:28:41;;;;;;;;;;;10.20;99.90;;;;;;7344384;19;112266;-78
2021/12/14 10:31:12;;;;;;;;;;;10.20;99.90;;;;;;7347874;19;109340;-77
2021/12/14 10:33:42;;;;;;;;;;;10.20;99.90;;;;;;7356207;19;111264;-78
2021/12/14 10:36:23;;;;;;;;;;;10.20;99.90;;;;;;7348612;19;109694;-77
2021/12/14 10:39:06;;;;;;;;;;;10.20;99.90;;;;;;7349060;19;110969;-77
2021/12/14 10:44:20;;;;;;;;;;;10.30;99.90;;;;;;7347143;19;110511;-78
2021/12/14 10:46:49;;;;;;;;;;;10.30;99.90;;;;;;7349058;19;110711;-77
2021/12/14 10:49:18;;;;;;;;;;;10.30;99.90;;;;;;7348245;19;112325;-77
2021/12/14 10:51:46;;;;;;;;;;;10.40;99.90;;;;;;7350624;19;109320;-78
2021/12/14 10:54:14;;;;;;;;;;;10.40;99.90;;;;;;7347342;19;111657;-79
2021/12/14 10:56:47;;;;;;;;;;;10.40;99.90;;;;;;7354715;19;112089;-78
2021/12/14 10:59:17;;;;;;;;;;;10.40;99.90;;;;;;7351236;19;110783;-77
2021/12/14 11:01:49;;;;;;;;;;;10.40;99.90;;;;;;7345549;19;111692;-77
2021/12/14 11:04:22;;;;;;;;;;;10.40;99.90;;;;;;7349665;19;110402;-78
2021/12/14 11:06:58;;;;;;;;;;;10.50;99.90;;;;;;7345426;19;111010;-77
2021/12/14 11:12:09;;;;;;;;;;;10.50;99.90;;;;;;7334848;19;110826;-79
2021/12/14 11:14:37;;;;;;;;;;;10.50;99.90;;;;;;7348057;19;111008;-78
2021/12/14 11:19:54;;;;;;;;;;;10.60;99.90;;;;;;7353082;19;109442;-77
2021/12/14 11:22:23;;;;;;;;;;;10.60;99.90;;;;;;7347273;19;113332;-77
2021/12/14 11:24:53;;;;;;;;;;;10.70;99.90;;;;;;7343309;19;109308;-78
2021/12/14 11:27:22;;;;;;;;;;;10.70;99.90;;;;;;7347975;19;111032;-77
2021/12/14 11:29:51;;;;;;;;;;;10.60;99.90;;;;;;7346778;19;112089;-78
2021/12/14 11:32:21;;;;;;;;;;;10.60;99.90;;;;;;7348718;19;109449;-78
2021/12/14 11:34:48;;;;;;;;;;;10.70;99.90;;;;;;7346434;19;110855;-77
2021/12/14 11:37:19;;;;;;;;;;;10.70;99.90;;;;;;7345706;19;112270;-78
2021/12/14 11:39:49;;;;;;;;;;;10.70;99.90;;;;;;7351077;19;109912;-79
2021/12/14 11:42:19;;;;;;;;;;;10.70;99.90;;;;;;7343837;19;110613;-79
2021/12/14 11:44:51;;;;;;;;;;;10.70;99.90;;;;;;7349151;19;109893;-78
2021/12/14 11:50:00;;;;;;;;;;;10.70;99.90;;;;;;7348091;19;111684;-79
2021/12/14 11:52:37;;;;;;;;;;;10.70;99.90;;;;;;7346988;19;110120;-80
2021/12/14 11:55:26;;;;;;;;;;;10.80;99.90;;;;;;7346780;19;110792;-79
2021/12/14 11:58:12;;;;;;;;;;;10.70;99.90;;;;;;7348304;19;113419;-77
2021/12/14 12:00:42;;;;;;;;;;;10.80;99.90;;;;;;7345160;19;109800;-78
2021/12/14 12:03:18;;;;;;;;;;;10.80;99.90;;;;;;7339019;19;111727;-78
2021/12/14 12:06:05;;;;;;;;;;;10.80;99.90;;;;;;7353226;19;111918;-78
2021/12/14 12:11:19;;;;;;;;;;;10.80;99.90;;;;;;7345549;19;111746;-78
2021/12/14 12:13:46;;;;;;;;;;;10.90;99.90;;;;;;7351572;19;109593;-78
2021/12/14 12:16:20;;;;;;;;;;;10.90;99.90;;;;;;7345120;19;110720;-78
2021/12/14 12:19:06;;;;;;;;;;;10.90;99.90;;;;;;7348551;19;112091;-79
2021/12/14 12:21:33;;;;;;;;;;;10.80;99.90;;;;;;7345920;19;109413;-77
2021/12/14 12:24:00;;;;;;;;;;;10.70;99.90;;;;;;7348735;19;110691;-78
2021/12/14 12:26:29;;;;;;;;;;;10.70;99.90;;;;;;7346184;19;112026;-79
2021/12/14 12:29:02;;;;;;;;;;;10.80;99.90;;;;;;7350602;19;109748;-78
2021/12/14 12:31:33;;;;;;;;;;;10.80;99.90;;;;;;7341047;19;111852;-77
2021/12/14 12:34:00;;;;;;;;;;;10.90;99.90;;;;;;7345667;19;109541;-80
2021/12/14 12:36:35;;;;;;;;;;;10.80;99.90;;;;;;7345550;19;110711;-79
2021/12/14 12:39:07;;;;;;;;;;;10.90;99.90;;;;;;7347388;19;112030;-77
2021/12/14 12:41:46;;;;;;;;;;;10.90;99.90;;;;;;7343010;19;109510;-78
2021/12/14 12:44:15;;;;;;;;;;;10.90;99.90;;;;;;7348089;19;110771;-80
2021/12/14 12:46:55;;;;;;;;;;;10.90;99.90;;;;;;7346791;19;111685;-78
2021/12/14 12:49:25;;;;;;;;;;;10.90;99.90;;;;;;7349533;19;109314;-77
2021/12/14 12:51:52;;;;;;;;;;;10.90;99.90;;;;;;7346091;19;111804;-78
2021/12/14 12:54:21;;;;;;;;;;;10.90;99.90;;;;;;7340979;19;109519;-78
2021/12/14 12:57:06;;;;;;;;;;;10.90;99.90;;;;;;7348213;19;110849;-80
2021/12/14 12:59:47;;;;;;;;;;;10.90;99.90;;;;;;7343846;19;117216;-77
2021/12/14 13:02:34;;;;;;;;;;;10.90;99.90;;;;;;7346387;19;109737;-77
2021/12/14 13:05:17;;;;;;;;;;;11.00;99.90;;;;;;7347461;19;111176;-77
2021/12/14 13:07:47;;;;;;;;;;;11.00;99.90;;;;;;7344176;19;113296;-77
2021/12/14 13:10:35;;;;;;;;;;;11.00;99.90;;;;;;7347660;19;109359;-77
2021/12/14 13:13:16;;;;;;;;;;;10.90;99.90;;;;;;7347813;19;111430;-77
2021/12/14 13:15:42;;;;;;;;;;;11.00;99.90;;;;;;7345963;19;111011;-77
2021/12/14 13:18:17;;;;;;;;;;;11.00;99.90;;;;;;7347100;19;111415;-78
2021/12/14 13:20:45;;;;;;;;;;;11.00;99.90;;;;;;7345301;19;111687;-78
2021/12/14 13:23:18;;;;;;;;;;;11.00;99.90;;;;;;7343352;19;120204;-78
2021/12/14 13:25:45;;;;;;;;;;;11.00;99.90;;;;;;7342788;19;110821;-78
2021/12/14 13:28:13;;;;;;;;;;;11.10;99.90;;;;;;7342736;19;112568;-80
2021/12/14 13:30:42;;;;;;;;;;;11.10;99.90;;;;;;7343729;19;109672;-78
2021/12/14 13:33:26;;;;;;;;;;;11.10;99.90;;;;;;7345524;19;111021;-78
2021/12/14 13:35:53;;;;;;;;;;;11.10;99.90;;;;;;7348616;19;112010;-77
2021/12/14 13:38:20;;;;;;;;;;;11.10;99.90;;;;;;7345012;19;110451;-78
2021/12/14 13:40:47;;;;;;;;;;;11.10;99.90;;;;;;7343414;19;111816;-78
2021/12/14 13:43:17;;;;;;;;;;;11.10;99.90;;;;;;7343153;19;109714;-78
2021/12/14 13:45:46;;;;;;;;;;;11.10;99.90;;;;;;7344828;19;113160;-77
2021/12/14 13:48:16;;;;;;;;;;;11.10;99.90;;;;;;7340869;19;111640;-78
2021/12/14 13:50:46;;;;;;;;;;;11.10;99.90;;;;;;7344953;19;110192;-78
2021/12/14 13:53:13;;;;;;;;;;;11.10;99.90;;;;;;7342662;19;110525;-79
2021/12/14 13:55:55;;;;;;;;;;;11.10;99.90;;;;;;7345601;19;112173;-78
2021/12/14 13:58:24;;;;;;;;;;;11.10;99.90;;;;;;7348972;19;109394;-78
2021/12/14 14:00:57;;;;;;;;;;;11.10;99.90;;;;;;7344964;19;113119;-77
2021/12/14 14:03:26;;;;;;;;;;;11.10;99.90;;;;;;7342607;19;109435;-77
2021/12/14 14:05:54;;;;;;;;;;;11.10;99.90;;;;;;7348683;19;112500;-79
2021/12/14 14:08:25;;;;;;;;;;;11.10;99.90;;;;;;7351426;19;112083;-78
2021/12/14 14:10:53;;;;;;;;;;;11.00;99.90;;;;;;7349336;19;111056;-80
2021/12/14 14:13:30;;;;;;;;;;;11.10;99.90;;;;;;7349100;19;111643;-78
2021/12/14 14:15:58;;;;;;;;;;;11.00;99.90;;;;;;7347049;19;111760;-78
2021/12/14 14:18:28;;;;;;;;;;;11.10;99.90;;;;;;7352188;19;109445;-78
2021/12/14 14:20:55;;;;;;;;;;;11.10;99.90;;;;;;7354833;19;110254;-80
2021/12/14 14:23:24;;;;;;;;;;;11.10;99.90;;;;;;7350577;19;109587;-78
2021/12/14 14:26:02;;;;;;;;;;;11.20;99.90;;;;;;7346883;19;110658;-78
2021/12/14 14:28:49;;;;;;;;;;;11.10;99.90;;;;;;7348731;19;112793;-77
2021/12/14 14:31:29;;;;;;;;;;;11.10;99.90;;;;;;7352219;19;109606;-78
2021/12/14 14:33:57;;;;;;;;;;;11.20;99.90;;;;;;7348141;19;111259;-78
2021/12/14 14:36:34;;;;;;;;;;;11.10;99.90;;;;;;7351210;19;111665;-78
2021/12/14 14:39:22;;;;;;;;;;;11.10;99.90;;;;;;7347301;19;111140;-80
2021/12/14 14:41:50;;;;;;;;;;;11.00;99.90;;;;;;7351440;19;111644;-78
2021/12/14 14:44:23;;;;;;;;;;;11.00;99.90;;;;;;7343961;19;112282;-78
2021/12/14 14:47:05;;;;;;;;;;;11.00;99.90;;;;;;7340654;19;110740;-78
2021/12/14 14:49:32;;;;;;;;;;;11.00;99.90;;;;;;7351549;19;112288;-79
2021/12/14 14:52:01;;;;;;;;;;;11.00;99.90;;;;;;7348347;19;109833;-79
2021/12/14 14:54:30;;;;;;;;;;;11.00;99.90;;;;;;7350682;19;110604;-78
2021/12/14 14:57:06;;;;;;;;;;;11.00;99.90;;;;;;7345154;19;112024;-77
2021/12/14 14:59:34;;;;;;;;;;;11.00;99.90;;;;;;7349454;19;109381;-79
2021/12/14 15:02:01;;;;;;;;;;;11.00;99.90;;;;;;7345974;19;110740;-78
2021/12/14 15:04:28;;;;;;;;;;;11.00;99.90;;;;;;7354337;19;112049;-79